sensor_id;sensor_type;location;lat;lon;timestamp;P1;durP1;ratioP1;P2;durP2;ratioP2
62654;SDS011;48717;55.556;37.816;2023-01-19T00:02:17;25.77;;;8.70;;
62654;SDS011;48717;55.556;37.816;2023-01-19T00:04:46;32.35;;;13.50;;
62654;SDS011;48717;55.556;37.816;2023-01-19T00:07:18;26.13;;;12.10;;
62654;SDS011;48717;55.556;37.816;2023-01-19T00:09:45;36.35;;;12.98;;
62654;SDS011;48717;55.556;37.816;2023-01-19T00:12:12;26.52;;;11.50;;
62654;SDS011;48717;55.556;37.816;2023-01-19T00:14:39;35.15;;;12.30;;
62654;SDS011;48717;55.556;37.816;2023-01-19T00:17:06;39.17;;;14.98;;
62654;SDS011;48717;55.556;37.816;2023-01-19T00:19:33;24.80;;;10.85;;
62654;SDS011;48717;55.556;37.816;2023-01-19T00:22:00;19.42;;;8.88;;
62654;SDS011;48717;55.556;37.816;2023-01-19T00:24:27;22.73;;;9.30;;
62654;SDS011;48717;55.556;37.816;2023-01-19T00:26:54;39.00;;;14.20;;
62654;SDS011;48717;55.556;37.816;2023-01-19T00:29:22;41.55;;;13.45;;
62654;SDS011;48717;55.556;37.816;2023-01-19T00:31:49;34.72;;;12.90;;
62654;SDS011;48717;55.556;37.816;2023-01-19T00:34:16;26.05;;;9.35;;
62654;SDS011;48717;55.556;37.816;2023-01-19T00:36:44;35.13;;;11.63;;
62654;SDS011;48717;55.556;37.816;2023-01-19T00:39:11;30.88;;;10.80;;
62654;SDS011;48717;55.556;37.816;2023-01-19T00:41:38;24.75;;;10.23;;
62654;SDS011;48717;55.556;37.816;2023-01-19T00:44:24;28.88;;;11.85;;
62654;SDS011;48717;55.556;37.816;2023-01-19T00:46:51;29.95;;;12.13;;
62654;SDS011;48717;55.556;37.816;2023-01-19T00:49:18;23.90;;;10.75;;
62654;SDS011;48717;55.556;37.816;2023-01-19T00:51:45;27.58;;;9.52;;
62654;SDS011;48717;55.556;37.816;2023-01-19T00:54:12;22.83;;;10.50;;
62654;SDS011;48717;55.556;37.816;2023-01-19T00:56:40;18.85;;;9.10;;
62654;SDS011;48717;55.556;37.816;2023-01-19T00:59:07;20.95;;;9.25;;
62654;SDS011;48717;55.556;37.816;2023-01-19T01:01:34;29.70;;;13.15;;
62654;SDS011;48717;55.556;37.816;2023-01-19T01:04:12;34.00;;;14.80;;
62654;SDS011;48717;55.556;37.816;2023-01-19T01:06:39;20.63;;;8.50;;
62654;SDS011;48717;55.556;37.816;2023-01-19T01:09:06;32.88;;;12.13;;
62654;SDS011;48717;55.556;37.816;2023-01-19T01:11:38;21.10;;;9.93;;
62654;SDS011;48717;55.556;37.816;2023-01-19T01:14:06;25.70;;;10.38;;
62654;SDS011;48717;55.556;37.816;2023-01-19T01:16:34;28.45;;;12.63;;
62654;SDS011;48717;55.556;37.816;2023-01-19T01:19:01;27.45;;;11.20;;
62654;SDS011;48717;55.556;37.816;2023-01-19T01:21:28;33.60;;;12.15;;
62654;SDS011;48717;55.556;37.816;2023-01-19T01:23:55;34.33;;;13.18;;
62654;SDS011;48717;55.556;37.816;2023-01-19T01:26:22;33.80;;;11.70;;
62654;SDS011;48717;55.556;37.816;2023-01-19T01:28:52;41.85;;;14.05;;
62654;SDS011;48717;55.556;37.816;2023-01-19T01:31:19;27.55;;;12.18;;
62654;SDS011;48717;55.556;37.816;2023-01-19T01:33:46;21.00;;;9.38;;
62654;SDS011;48717;55.556;37.816;2023-01-19T01:36:14;36.35;;;13.18;;
62654;SDS011;48717;55.556;37.816;2023-01-19T01:38:41;36.28;;;14.10;;
62654;SDS011;48717;55.556;37.816;2023-01-19T01:41:08;19.63;;;8.85;;
62654;SDS011;48717;55.556;37.816;2023-01-19T01:46:14;37.28;;;13.98;;
62654;SDS011;48717;55.556;37.816;2023-01-19T01:48:43;22.40;;;10.23;;
62654;SDS011;48717;55.556;37.816;2023-01-19T01:51:19;27.48;;;10.75;;
62654;SDS011;48717;55.556;37.816;2023-01-19T01:54:08;33.13;;;12.48;;
62654;SDS011;48717;55.556;37.816;2023-01-19T01:56:47;26.80;;;9.25;;
62654;SDS011;48717;55.556;37.816;2023-01-19T01:59:21;24.10;;;10.98;;
62654;SDS011;48717;55.556;37.816;2023-01-19T02:01:56;33.92;;;16.20;;
62654;SDS011;48717;55.556;37.816;2023-01-19T02:04:45;35.50;;;12.07;;
62654;SDS011;48717;55.556;37.816;2023-01-19T02:07:18;35.30;;;13.30;;
62654;SDS011;48717;55.556;37.816;2023-01-19T02:10:11;33.63;;;14.07;;
62654;SDS011;48717;55.556;37.816;2023-01-19T02:12:56;39.45;;;15.15;;
62654;SDS011;48717;55.556;37.816;2023-01-19T02:15:43;43.22;;;15.98;;
62654;SDS011;48717;55.556;37.816;2023-01-19T02:18:10;36.33;;;13.75;;
62654;SDS011;48717;55.556;37.816;2023-01-19T02:20:37;21.08;;;9.35;;
62654;SDS011;48717;55.556;37.816;2023-01-19T02:23:11;39.50;;;14.68;;
62654;SDS011;48717;55.556;37.816;2023-01-19T02:25:43;30.20;;;11.05;;
62654;SDS011;48717;55.556;37.816;2023-01-19T02:28:10;35.60;;;14.10;;
62654;SDS011;48717;55.556;37.816;2023-01-19T02:30:37;24.73;;;9.55;;
62654;SDS011;48717;55.556;37.816;2023-01-19T02:33:06;36.83;;;11.98;;
62654;SDS011;48717;55.556;37.816;2023-01-19T02:35:34;27.98;;;10.82;;
62654;SDS011;48717;55.556;37.816;2023-01-19T02:38:04;30.15;;;10.20;;
62654;SDS011;48717;55.556;37.816;2023-01-19T02:46:59;42.30;;;14.60;;
62654;SDS011;48717;55.556;37.816;2023-01-19T02:51:11;23.23;;;11.43;;
62654;SDS011;48717;55.556;37.816;2023-01-19T02:53:48;28.88;;;12.45;;
62654;SDS011;48717;55.556;37.816;2023-01-19T03:04:26;26.02;;;13.13;;
62654;SDS011;48717;55.556;37.816;2023-01-19T03:07:19;35.22;;;17.45;;
62654;SDS011;48717;55.556;37.816;2023-01-19T03:10:03;24.98;;;11.18;;
62654;SDS011;48717;55.556;37.816;2023-01-19T03:15:45;21.30;;;9.20;;
62654;SDS011;48717;55.556;37.816;2023-01-19T03:18:53;35.33;;;14.45;;
62654;SDS011;48717;55.556;37.816;2023-01-19T03:22:18;36.33;;;14.70;;
62654;SDS011;48717;55.556;37.816;2023-01-19T03:24:59;36.35;;;14.60;;
62654;SDS011;48717;55.556;37.816;2023-01-19T03:31:14;29.50;;;16.45;;
62654;SDS011;48717;55.556;37.816;2023-01-19T03:34:28;25.67;;;12.18;;
62654;SDS011;48717;55.556;37.816;2023-01-19T03:37:15;19.65;;;8.55;;
62654;SDS011;48717;55.556;37.816;2023-01-19T03:40:06;19.90;;;8.98;;
62654;SDS011;48717;55.556;37.816;2023-01-19T03:42:34;30.75;;;11.45;;
62654;SDS011;48717;55.556;37.816;2023-01-19T03:45:04;34.55;;;11.70;;
62654;SDS011;48717;55.556;37.816;2023-01-19T03:47:31;22.38;;;10.43;;
62654;SDS011;48717;55.556;37.816;2023-01-19T03:50:00;22.67;;;9.82;;
62654;SDS011;48717;55.556;37.816;2023-01-19T03:52:31;26.92;;;11.18;;
62654;SDS011;48717;55.556;37.816;2023-01-19T03:55:02;29.88;;;10.82;;
62654;SDS011;48717;55.556;37.816;2023-01-19T03:57:31;19.85;;;8.30;;
62654;SDS011;48717;55.556;37.816;2023-01-19T03:59:58;20.35;;;8.95;;
62654;SDS011;48717;55.556;37.816;2023-01-19T04:02:25;28.52;;;11.60;;
62654;SDS011;48717;55.556;37.816;2023-01-19T04:04:53;17.85;;;8.20;;
62654;SDS011;48717;55.556;37.816;2023-01-19T04:07:21;31.25;;;12.93;;
62654;SDS011;48717;55.556;37.816;2023-01-19T04:09:48;19.90;;;10.18;;
62654;SDS011;48717;55.556;37.816;2023-01-19T04:12:15;33.03;;;12.95;;
62654;SDS011;48717;55.556;37.816;2023-01-19T04:14:42;28.13;;;15.25;;
62654;SDS011;48717;55.556;37.816;2023-01-19T04:17:09;24.48;;;14.45;;
62654;SDS011;48717;55.556;37.816;2023-01-19T04:19:37;28.88;;;12.82;;
62654;SDS011;48717;55.556;37.816;2023-01-19T04:22:04;21.23;;;10.68;;
62654;SDS011;48717;55.556;37.816;2023-01-19T04:24:32;17.02;;;9.07;;
62654;SDS011;48717;55.556;37.816;2023-01-19T04:26:59;33.33;;;14.30;;
62654;SDS011;48717;55.556;37.816;2023-01-19T04:29:26;27.40;;;11.52;;
62654;SDS011;48717;55.556;37.816;2023-01-19T04:31:53;22.63;;;10.77;;
62654;SDS011;48717;55.556;37.816;2023-01-19T04:34:20;28.20;;;11.13;;
62654;SDS011;48717;55.556;37.816;2023-01-19T04:36:47;23.00;;;9.30;;
62654;SDS011;48717;55.556;37.816;2023-01-19T04:39:16;22.38;;;10.07;;
62654;SDS011;48717;55.556;37.816;2023-01-19T04:41:45;23.83;;;10.45;;
62654;SDS011;48717;55.556;37.816;2023-01-19T04:44:54;21.83;;;9.55;;
62654;SDS011;48717;55.556;37.816;2023-01-19T04:47:22;26.13;;;11.52;;
62654;SDS011;48717;55.556;37.816;2023-01-19T04:49:51;27.73;;;12.90;;
62654;SDS011;48717;55.556;37.816;2023-01-19T04:52:57;29.50;;;13.75;;
62654;SDS011;48717;55.556;37.816;2023-01-19T04:55:35;22.23;;;10.40;;
62654;SDS011;48717;55.556;37.816;2023-01-19T04:58:44;31.98;;;14.02;;
62654;SDS011;48717;55.556;37.816;2023-01-19T05:01:11;27.73;;;12.77;;
62654;SDS011;48717;55.556;37.816;2023-01-19T05:03:39;24.35;;;10.40;;
62654;SDS011;48717;55.556;37.816;2023-01-19T05:06:06;36.20;;;15.48;;
62654;SDS011;48717;55.556;37.816;2023-01-19T05:08:33;25.05;;;12.68;;
62654;SDS011;48717;55.556;37.816;2023-01-19T05:11:00;28.58;;;11.38;;
62654;SDS011;48717;55.556;37.816;2023-01-19T05:13:28;35.55;;;13.48;;
62654;SDS011;48717;55.556;37.816;2023-01-19T05:15:55;20.23;;;8.45;;
62654;SDS011;48717;55.556;37.816;2023-01-19T05:18:22;27.33;;;10.23;;
62654;SDS011;48717;55.556;37.816;2023-01-19T05:23:30;20.58;;;10.10;;
62654;SDS011;48717;55.556;37.816;2023-01-19T05:25:58;29.52;;;13.52;;
62654;SDS011;48717;55.556;37.816;2023-01-19T05:28:28;23.77;;;10.43;;
62654;SDS011;48717;55.556;37.816;2023-01-19T05:30:56;20.30;;;10.75;;
62654;SDS011;48717;55.556;37.816;2023-01-19T05:33:23;29.77;;;12.40;;
62654;SDS011;48717;55.556;37.816;2023-01-19T05:35:51;33.72;;;13.38;;
62654;SDS011;48717;55.556;37.816;2023-01-19T05:38:19;25.80;;;12.50;;
62654;SDS011;48717;55.556;37.816;2023-01-19T05:41:00;33.55;;;11.52;;
62654;SDS011;48717;55.556;37.816;2023-01-19T05:43:28;26.25;;;12.10;;
62654;SDS011;48717;55.556;37.816;2023-01-19T05:45:55;24.55;;;10.70;;
62654;SDS011;48717;55.556;37.816;2023-01-19T05:48:22;27.35;;;10.85;;
62654;SDS011;48717;55.556;37.816;2023-01-19T05:50:49;31.95;;;12.50;;
62654;SDS011;48717;55.556;37.816;2023-01-19T05:53:17;25.05;;;10.50;;
62654;SDS011;48717;55.556;37.816;2023-01-19T05:55:44;45.47;;;15.50;;
62654;SDS011;48717;55.556;37.816;2023-01-19T05:58:11;37.33;;;14.00;;
62654;SDS011;48717;55.556;37.816;2023-01-19T06:00:38;34.60;;;13.52;;
62654;SDS011;48717;55.556;37.816;2023-01-19T06:03:29;30.25;;;11.15;;
62654;SDS011;48717;55.556;37.816;2023-01-19T06:06:23;43.33;;;15.70;;
62654;SDS011;48717;55.556;37.816;2023-01-19T06:09:29;25.95;;;10.98;;
62654;SDS011;48717;55.556;37.816;2023-01-19T06:11:58;28.40;;;10.80;;
62654;SDS011;48717;55.556;37.816;2023-01-19T06:14:25;36.65;;;14.20;;
62654;SDS011;48717;55.556;37.816;2023-01-19T06:17:22;27.33;;;10.95;;
62654;SDS011;48717;55.556;37.816;2023-01-19T06:20:09;27.67;;;12.27;;
62654;SDS011;48717;55.556;37.816;2023-01-19T06:22:48;24.98;;;11.23;;
62654;SDS011;48717;55.556;37.816;2023-01-19T06:25:53;43.33;;;15.68;;
62654;SDS011;48717;55.556;37.816;2023-01-19T06:28:21;37.28;;;12.68;;
62654;SDS011;48717;55.556;37.816;2023-01-19T06:30:49;38.45;;;15.77;;
62654;SDS011;48717;55.556;37.816;2023-01-19T06:33:18;26.30;;;10.73;;
62654;SDS011;48717;55.556;37.816;2023-01-19T06:35:46;45.83;;;16.25;;
62654;SDS011;48717;55.556;37.816;2023-01-19T06:38:14;29.98;;;12.18;;
62654;SDS011;48717;55.556;37.816;2023-01-19T06:40:50;36.25;;;13.32;;
62654;SDS011;48717;55.556;37.816;2023-01-19T06:43:19;32.03;;;12.85;;
62654;SDS011;48717;55.556;37.816;2023-01-19T06:45:47;40.00;;;13.18;;
62654;SDS011;48717;55.556;37.816;2023-01-19T06:48:16;48.60;;;16.50;;
62654;SDS011;48717;55.556;37.816;2023-01-19T06:50:44;24.67;;;10.75;;
62654;SDS011;48717;55.556;37.816;2023-01-19T06:53:26;29.08;;;12.15;;
62654;SDS011;48717;55.556;37.816;2023-01-19T06:56:07;44.50;;;15.63;;
62654;SDS011;48717;55.556;37.816;2023-01-19T06:59:45;39.75;;;13.82;;
62654;SDS011;48717;55.556;37.816;2023-01-19T07:08:50;41.63;;;15.45;;
62654;SDS011;48717;55.556;37.816;2023-01-19T07:12:10;48.30;;;16.67;;
62654;SDS011;48717;55.556;37.816;2023-01-19T07:14:37;58.35;;;21.10;;
62654;SDS011;48717;55.556;37.816;2023-01-19T07:17:04;36.45;;;16.00;;
62654;SDS011;48717;55.556;37.816;2023-01-19T07:19:31;58.20;;;21.80;;
62654;SDS011;48717;55.556;37.816;2023-01-19T07:22:00;62.15;;;20.52;;
62654;SDS011;48717;55.556;37.816;2023-01-19T07:24:28;66.30;;;19.83;;
62654;SDS011;48717;55.556;37.816;2023-01-19T07:27:03;57.83;;;21.45;;
62654;SDS011;48717;55.556;37.816;2023-01-19T07:29:31;69.20;;;20.98;;
62654;SDS011;48717;55.556;37.816;2023-01-19T07:31:58;47.55;;;16.05;;
62654;SDS011;48717;55.556;37.816;2023-01-19T07:34:25;61.53;;;20.52;;
62654;SDS011;48717;55.556;37.816;2023-01-19T07:36:54;57.35;;;20.50;;
62654;SDS011;48717;55.556;37.816;2023-01-19T07:39:21;65.63;;;21.15;;
62654;SDS011;48717;55.556;37.816;2023-01-19T07:41:49;46.35;;;14.88;;
62654;SDS011;48717;55.556;37.816;2023-01-19T07:44:16;51.35;;;16.50;;
62654;SDS011;48717;55.556;37.816;2023-01-19T07:46:43;61.72;;;16.25;;
62654;SDS011;48717;55.556;37.816;2023-01-19T07:49:10;27.40;;;13.10;;
62654;SDS011;48717;55.556;37.816;2023-01-19T07:51:38;39.50;;;13.55;;
62654;SDS011;48717;55.556;37.816;2023-01-19T07:54:05;39.38;;;13.07;;
62654;SDS011;48717;55.556;37.816;2023-01-19T07:56:34;37.45;;;13.30;;
62654;SDS011;48717;55.556;37.816;2023-01-19T07:59:19;51.55;;;16.13;;
62654;SDS011;48717;55.556;37.816;2023-01-19T08:02:27;39.80;;;16.13;;
62654;SDS011;48717;55.556;37.816;2023-01-19T08:04:58;37.08;;;12.52;;
62654;SDS011;48717;55.556;37.816;2023-01-19T08:07:47;40.97;;;14.55;;
62654;SDS011;48717;55.556;37.816;2023-01-19T08:10:24;37.67;;;19.07;;
62654;SDS011;48717;55.556;37.816;2023-01-19T08:13:34;64.70;;;18.77;;
62654;SDS011;48717;55.556;37.816;2023-01-19T08:16:01;70.00;;;22.15;;
62654;SDS011;48717;55.556;37.816;2023-01-19T08:18:28;38.80;;;13.77;;
62654;SDS011;48717;55.556;37.816;2023-01-19T08:21:35;65.55;;;20.27;;
62654;SDS011;48717;55.556;37.816;2023-01-19T08:24:05;46.10;;;17.02;;
62654;SDS011;48717;55.556;37.816;2023-01-19T08:26:33;76.47;;;21.77;;
62654;SDS011;48717;55.556;37.816;2023-01-19T08:29:32;35.90;;;12.98;;
62654;SDS011;48717;55.556;37.816;2023-01-19T08:32:30;41.67;;;17.95;;
62654;SDS011;48717;55.556;37.816;2023-01-19T08:35:17;59.70;;;19.30;;
62654;SDS011;48717;55.556;37.816;2023-01-19T08:37:52;45.40;;;15.90;;
62654;SDS011;48717;55.556;37.816;2023-01-19T08:40:20;45.47;;;16.65;;
62654;SDS011;48717;55.556;37.816;2023-01-19T08:43:07;36.08;;;13.38;;
62654;SDS011;48717;55.556;37.816;2023-01-19T08:45:37;37.22;;;13.50;;
62654;SDS011;48717;55.556;37.816;2023-01-19T08:48:14;65.43;;;19.25;;
62654;SDS011;48717;55.556;37.816;2023-01-19T08:50:46;79.70;;;23.60;;
62654;SDS011;48717;55.556;37.816;2023-01-19T08:53:14;80.82;;;23.88;;
62654;SDS011;48717;55.556;37.816;2023-01-19T08:55:42;67.47;;;21.33;;
62654;SDS011;48717;55.556;37.816;2023-01-19T08:58:09;90.55;;;25.90;;
62654;SDS011;48717;55.556;37.816;2023-01-19T09:00:37;56.80;;;16.35;;
62654;SDS011;48717;55.556;37.816;2023-01-19T09:03:06;75.63;;;22.95;;
62654;SDS011;48717;55.556;37.816;2023-01-19T09:05:35;57.95;;;14.20;;
62654;SDS011;48717;55.556;37.816;2023-01-19T09:08:08;88.35;;;24.20;;
62654;SDS011;48717;55.556;37.816;2023-01-19T09:10:37;34.30;;;12.63;;
62654;SDS011;48717;55.556;37.816;2023-01-19T09:13:06;36.80;;;14.82;;
62654;SDS011;48717;55.556;37.816;2023-01-19T09:15:40;56.30;;;16.10;;
62654;SDS011;48717;55.556;37.816;2023-01-19T09:18:09;23.80;;;9.90;;
62654;SDS011;48717;55.556;37.816;2023-01-19T09:20:39;81.63;;;23.73;;
62654;SDS011;48717;55.556;37.816;2023-01-19T09:23:09;50.10;;;14.32;;
62654;SDS011;48717;55.556;37.816;2023-01-19T09:25:37;39.22;;;14.05;;
62654;SDS011;48717;55.556;37.816;2023-01-19T09:28:05;51.95;;;16.73;;
62654;SDS011;48717;55.556;37.816;2023-01-19T09:30:35;60.53;;;17.48;;
62654;SDS011;48717;55.556;37.816;2023-01-19T09:33:04;95.75;;;27.00;;
62654;SDS011;48717;55.556;37.816;2023-01-19T09:35:33;58.92;;;16.60;;
62654;SDS011;48717;55.556;37.816;2023-01-19T09:38:00;92.18;;;24.70;;
62654;SDS011;48717;55.556;37.816;2023-01-19T09:40:28;93.47;;;24.48;;
62654;SDS011;48717;55.556;37.816;2023-01-19T09:42:56;100.70;;;24.42;;
62654;SDS011;48717;55.556;37.816;2023-01-19T09:45:56;52.92;;;15.80;;
62654;SDS011;48717;55.556;37.816;2023-01-19T09:50:52;85.07;;;22.80;;
62654;SDS011;48717;55.556;37.816;2023-01-19T09:53:29;99.60;;;23.50;;
62654;SDS011;48717;55.556;37.816;2023-01-19T09:56:18;64.93;;;19.83;;
62654;SDS011;48717;55.556;37.816;2023-01-19T09:58:46;88.25;;;22.52;;
62654;SDS011;48717;55.556;37.816;2023-01-19T10:09:39;49.50;;;17.17;;
62654;SDS011;48717;55.556;37.816;2023-01-19T10:12:26;53.30;;;16.90;;
62654;SDS011;48717;55.556;37.816;2023-01-19T10:18:21;77.80;;;21.95;;
62654;SDS011;48717;55.556;37.816;2023-01-19T10:20:50;100.25;;;25.48;;
62654;SDS011;48717;55.556;37.816;2023-01-19T10:26:05;27.47;;;13.03;;
62654;SDS011;48717;55.556;37.816;2023-01-19T10:28:37;66.53;;;18.02;;
62654;SDS011;48717;55.556;37.816;2023-01-19T10:31:06;99.07;;;24.85;;
62654;SDS011;48717;55.556;37.816;2023-01-19T10:33:35;77.55;;;18.13;;
62654;SDS011;48717;55.556;37.816;2023-01-19T10:36:05;89.65;;;21.92;;
62654;SDS011;48717;55.556;37.816;2023-01-19T10:38:40;114.57;;;24.88;;
62654;SDS011;48717;55.556;37.816;2023-01-19T10:41:18;114.78;;;24.10;;
62654;SDS011;48717;55.556;37.816;2023-01-19T10:43:59;111.30;;;25.20;;
62654;SDS011;48717;55.556;37.816;2023-01-19T10:46:33;57.15;;;13.32;;
62654;SDS011;48717;55.556;37.816;2023-01-19T10:49:04;61.95;;;17.02;;
62654;SDS011;48717;55.556;37.816;2023-01-19T10:51:32;90.38;;;20.58;;
62654;SDS011;48717;55.556;37.816;2023-01-19T10:54:00;95.38;;;21.42;;
62654;SDS011;48717;55.556;37.816;2023-01-19T10:58:59;109.57;;;24.55;;
62654;SDS011;48717;55.556;37.816;2023-01-19T11:01:28;46.70;;;14.23;;
62654;SDS011;48717;55.556;37.816;2023-01-19T11:03:57;111.40;;;25.33;;
62654;SDS011;48717;55.556;37.816;2023-01-19T11:06:31;59.15;;;15.40;;
62654;SDS011;48717;55.556;37.816;2023-01-19T11:09:16;62.17;;;15.68;;
62654;SDS011;48717;55.556;37.816;2023-01-19T11:11:46;81.13;;;17.90;;
62654;SDS011;48717;55.556;37.816;2023-01-19T11:14:19;98.47;;;18.63;;
62654;SDS011;48717;55.556;37.816;2023-01-19T11:16:50;51.63;;;14.60;;
62654;SDS011;48717;55.556;37.816;2023-01-19T11:19:23;101.68;;;23.38;;
62654;SDS011;48717;55.556;37.816;2023-01-19T11:24:50;74.13;;;18.10;;
62654;SDS011;48717;55.556;37.816;2023-01-19T11:27:18;49.95;;;14.98;;
62654;SDS011;48717;55.556;37.816;2023-01-19T11:29:54;85.22;;;21.70;;
62654;SDS011;48717;55.556;37.816;2023-01-19T11:32:30;71.60;;;18.40;;
62654;SDS011;48717;55.556;37.816;2023-01-19T11:35:46;32.10;;;11.90;;
62654;SDS011;48717;55.556;37.816;2023-01-19T11:40:56;58.28;;;15.13;;
62654;SDS011;48717;55.556;37.816;2023-01-19T11:43:28;83.32;;;23.05;;
62654;SDS011;48717;55.556;37.816;2023-01-19T11:46:13;88.72;;;22.98;;
62654;SDS011;48717;55.556;37.816;2023-01-19T11:48:42;81.47;;;22.35;;
62654;SDS011;48717;55.556;37.816;2023-01-19T11:51:22;91.25;;;23.52;;
62654;SDS011;48717;55.556;37.816;2023-01-19T11:53:54;57.90;;;15.40;;
62654;SDS011;48717;55.556;37.816;2023-01-19T11:56:22;32.20;;;12.40;;
62654;SDS011;48717;55.556;37.816;2023-01-19T11:59:08;92.25;;;24.20;;
62654;SDS011;48717;55.556;37.816;2023-01-19T12:01:42;91.03;;;23.27;;
62654;SDS011;48717;55.556;37.816;2023-01-19T12:04:35;86.60;;;22.45;;
62654;SDS011;48717;55.556;37.816;2023-01-19T12:07:06;66.93;;;17.35;;
62654;SDS011;48717;55.556;37.816;2023-01-19T12:09:42;84.15;;;20.85;;
62654;SDS011;48717;55.556;37.816;2023-01-19T12:20:02;94.20;;;21.05;;
62654;SDS011;48717;55.556;37.816;2023-01-19T12:22:42;43.40;;;14.10;;
62654;SDS011;48717;55.556;37.816;2023-01-19T12:25:29;85.05;;;22.60;;
62654;SDS011;48717;55.556;37.816;2023-01-19T12:28:10;73.47;;;19.00;;
62654;SDS011;48717;55.556;37.816;2023-01-19T12:30:40;87.45;;;22.10;;
62654;SDS011;48717;55.556;37.816;2023-01-19T12:36:00;80.13;;;19.42;;
62654;SDS011;48717;55.556;37.816;2023-01-19T12:41:19;85.43;;;21.70;;
62654;SDS011;48717;55.556;37.816;2023-01-19T12:46:48;95.50;;;22.05;;
62654;SDS011;48717;55.556;37.816;2023-01-19T12:49:39;65.95;;;18.33;;
62654;SDS011;48717;55.556;37.816;2023-01-19T13:05:25;74.72;;;21.30;;
62654;SDS011;48717;55.556;37.816;2023-01-19T13:13:28;77.68;;;18.40;;
62654;SDS011;48717;55.556;37.816;2023-01-19T13:19:15;76.13;;;19.40;;
62654;SDS011;48717;55.556;37.816;2023-01-19T13:21:47;64.13;;;15.25;;
62654;SDS011;48717;55.556;37.816;2023-01-19T13:24:19;80.22;;;21.65;;
62654;SDS011;48717;55.556;37.816;2023-01-19T13:29:17;98.55;;;24.20;;
62654;SDS011;48717;55.556;37.816;2023-01-19T13:32:12;51.55;;;15.80;;
62654;SDS011;48717;55.556;37.816;2023-01-19T13:34:45;44.60;;;14.15;;
62654;SDS011;48717;55.556;37.816;2023-01-19T13:37:19;44.70;;;13.95;;
62654;SDS011;48717;55.556;37.816;2023-01-19T13:39:49;33.00;;;13.40;;
62654;SDS011;48717;55.556;37.816;2023-01-19T13:45:03;65.05;;;18.75;;
62654;SDS011;48717;55.556;37.816;2023-01-19T13:47:43;74.50;;;21.58;;
62654;SDS011;48717;55.556;37.816;2023-01-19T13:50:19;49.55;;;15.55;;
62654;SDS011;48717;55.556;37.816;2023-01-19T13:52:48;80.70;;;21.75;;
62654;SDS011;48717;55.556;37.816;2023-01-19T13:55:16;72.80;;;20.33;;
62654;SDS011;48717;55.556;37.816;2023-01-19T13:57:46;58.53;;;17.08;;
62654;SDS011;48717;55.556;37.816;2023-01-19T14:03:00;80.07;;;21.48;;
62654;SDS011;48717;55.556;37.816;2023-01-19T14:05:38;51.22;;;17.00;;
62654;SDS011;48717;55.556;37.816;2023-01-19T14:13:32;66.53;;;19.13;;
62654;SDS011;48717;55.556;37.816;2023-01-19T14:16:15;60.13;;;16.77;;
62654;SDS011;48717;55.556;37.816;2023-01-19T14:18:43;52.38;;;16.10;;
62654;SDS011;48717;55.556;37.816;2023-01-19T14:21:11;66.72;;;19.17;;
62654;SDS011;48717;55.556;37.816;2023-01-19T14:26:48;35.20;;;11.93;;
62654;SDS011;48717;55.556;37.816;2023-01-19T14:29:26;48.67;;;14.48;;
62654;SDS011;48717;55.556;37.816;2023-01-19T14:34:49;71.20;;;21.75;;
62654;SDS011;48717;55.556;37.816;2023-01-19T14:37:31;42.10;;;14.10;;
62654;SDS011;48717;55.556;37.816;2023-01-19T14:42:34;70.13;;;19.15;;
62654;SDS011;48717;55.556;37.816;2023-01-19T14:45:06;43.33;;;13.02;;
62654;SDS011;48717;55.556;37.816;2023-01-19T14:47:42;50.13;;;17.48;;
62654;SDS011;48717;55.556;37.816;2023-01-19T14:50:17;55.30;;;18.27;;
62654;SDS011;48717;55.556;37.816;2023-01-19T14:52:50;63.65;;;19.25;;
62654;SDS011;48717;55.556;37.816;2023-01-19T14:55:34;58.00;;;18.33;;
62654;SDS011;48717;55.556;37.816;2023-01-19T14:58:23;52.13;;;14.25;;
62654;SDS011;48717;55.556;37.816;2023-01-19T15:00:52;69.22;;;20.05;;
62654;SDS011;48717;55.556;37.816;2023-01-19T15:03:23;80.82;;;19.90;;
62654;SDS011;48717;55.556;37.816;2023-01-19T15:09:47;57.63;;;18.08;;
62654;SDS011;48717;55.556;37.816;2023-01-19T15:12:16;57.28;;;17.63;;
62654;SDS011;48717;55.556;37.816;2023-01-19T15:14:46;67.47;;;19.15;;
62654;SDS011;48717;55.556;37.816;2023-01-19T15:17:16;67.32;;;20.00;;
62654;SDS011;48717;55.556;37.816;2023-01-19T15:19:52;60.10;;;14.93;;
62654;SDS011;48717;55.556;37.816;2023-01-19T15:22:20;38.22;;;12.57;;
62654;SDS011;48717;55.556;37.816;2023-01-19T15:24:48;35.53;;;10.88;;
62654;SDS011;48717;55.556;37.816;2023-01-19T15:27:15;36.20;;;12.05;;
62654;SDS011;48717;55.556;37.816;2023-01-19T15:29:48;32.08;;;11.32;;
62654;SDS011;48717;55.556;37.816;2023-01-19T15:38:51;71.55;;;19.15;;
62654;SDS011;48717;55.556;37.816;2023-01-19T15:44:51;62.88;;;18.30;;
62654;SDS011;48717;55.556;37.816;2023-01-19T15:48:44;53.88;;;16.98;;
62654;SDS011;48717;55.556;37.816;2023-01-19T15:51:14;31.55;;;11.18;;
62654;SDS011;48717;55.556;37.816;2023-01-19T15:53:43;68.90;;;20.23;;
62654;SDS011;48717;55.556;37.816;2023-01-19T15:56:15;59.85;;;15.10;;
62654;SDS011;48717;55.556;37.816;2023-01-19T15:58:51;38.13;;;12.27;;
62654;SDS011;48717;55.556;37.816;2023-01-19T16:01:23;65.93;;;18.60;;
62654;SDS011;48717;55.556;37.816;2023-01-19T16:03:58;85.60;;;21.50;;
62654;SDS011;48717;55.556;37.816;2023-01-19T16:06:28;69.23;;;17.83;;
62654;SDS011;48717;55.556;37.816;2023-01-19T16:08:56;64.88;;;17.38;;
62654;SDS011;48717;55.556;37.816;2023-01-19T16:11:30;78.88;;;20.48;;
62654;SDS011;48717;55.556;37.816;2023-01-19T16:14:02;74.10;;;20.48;;
62654;SDS011;48717;55.556;37.816;2023-01-19T16:17:32;76.70;;;18.45;;
62654;SDS011;48717;55.556;37.816;2023-01-19T16:29:55;60.33;;;17.02;;
62654;SDS011;48717;55.556;37.816;2023-01-19T16:32:39;77.30;;;19.10;;
62654;SDS011;48717;55.556;37.816;2023-01-19T16:35:24;65.85;;;17.30;;
62654;SDS011;48717;55.556;37.816;2023-01-19T16:38:20;90.32;;;23.55;;
62654;SDS011;48717;55.556;37.816;2023-01-19T16:41:16;87.03;;;22.42;;
62654;SDS011;48717;55.556;37.816;2023-01-19T16:43:56;35.35;;;11.65;;
62654;SDS011;48717;55.556;37.816;2023-01-19T16:46:24;64.07;;;16.45;;
62654;SDS011;48717;55.556;37.816;2023-01-19T16:48:53;80.07;;;19.80;;
62654;SDS011;48717;55.556;37.816;2023-01-19T16:51:26;36.88;;;11.73;;
62654;SDS011;48717;55.556;37.816;2023-01-19T16:53:53;64.47;;;17.65;;
62654;SDS011;48717;55.556;37.816;2023-01-19T16:56:21;89.82;;;20.42;;
62654;SDS011;48717;55.556;37.816;2023-01-19T16:58:51;94.05;;;19.15;;
62654;SDS011;48717;55.556;37.816;2023-01-19T17:01:23;105.43;;;21.15;;
62654;SDS011;48717;55.556;37.816;2023-01-19T17:03:58;99.75;;;24.10;;
62654;SDS011;48717;55.556;37.816;2023-01-19T17:06:25;107.05;;;24.17;;
62654;SDS011;48717;55.556;37.816;2023-01-19T17:08:54;80.32;;;21.25;;
62654;SDS011;48717;55.556;37.816;2023-01-19T17:11:25;117.22;;;26.23;;
62654;SDS011;48717;55.556;37.816;2023-01-19T17:14:00;54.20;;;15.40;;